Time;durP1;ratioP1;P1;durP2;ratioP2;P2;SDS_P1;SDS_P2;PMS_P1;PMS_P2;Temp;Humidity;BMP_temperature;BMP_pressure;BME280_temperature;BME280_humidity;BME280_pressure;Samples;Min_cycle;Max_cycle;Signal;HPM_P1;HPM_P2
2021/05/17 00:00:10;;;;;;;5.18;1.80;;;;;;;;;;5019687;28;20495;-86
2021/05/17 00:02:36;;;;;;;8.02;1.80;;;;;;;;;;5011894;28;20469;-87
2021/05/17 00:05:01;;;;;;;7.05;1.63;;;;;;;;;;5010863;28;20454;-86
2021/05/17 00:07:26;;;;;;;3.83;1.42;;;;;;;;;;5010651;28;20063;-86
2021/05/17 00:09:52;;;;;;;3.58;1.27;;;;;;;;;;5010497;28;20057;-86
2021/05/17 00:12:17;;;;;;;5.63;1.70;;;;;;;;;;5010882;28;20026;-86
2021/05/17 00:14:42;;;;;;;5.70;1.42;;;;;;;;;;5009223;28;20055;-87
2021/05/17 00:17:08;;;;;;;5.65;1.33;;;;;;;;;;5009606;28;20451;-87
2021/05/17 00:19:33;;;;;;;4.97;1.48;;;;;;;;;;5010316;28;20041;-86
2021/05/17 00:21:58;;;;;;;5.28;1.58;;;;;;;;;;5010690;28;20464;-86
2021/05/17 00:24:24;;;;;;;3.95;1.40;;;;;;;;;;5010363;28;20038;-86
2021/05/17 00:26:49;;;;;;;4.00;1.40;;;;;;;;;;5010552;28;20057;-87
2021/05/17 00:29:15;;;;;;;3.63;1.40;;;;;;;;;;5012556;28;20025;-87
2021/05/17 00:31:41;;;;;;;6.35;1.52;;;;;;;;;;5010024;28;20030;-86
2021/05/17 00:34:07;;;;;;;9.27;1.60;;;;;;;;;;5010580;28;20018;-87
2021/05/17 00:36:33;;;;;;;5.03;1.58;;;;;;;;;;5010388;28;20049;-86
2021/05/17 00:38:59;;;;;;;5.25;1.50;;;;;;;;;;5010475;28;20057;-87
2021/05/17 00:41:24;;;;;;;2.70;1.25;;;;;;;;;;5025755;28;20106;-86
2021/05/17 00:43:51;;;;;;;5.50;1.60;;;;;;;;;;5010329;28;20044;-86
2021/05/17 00:46:17;;;;;;;8.88;1.63;;;;;;;;;;5009295;28;20029;-87
2021/05/17 00:48:42;;;;;;;4.05;1.30;;;;;;;;;;5010357;28;20026;-86
2021/05/17 00:51:08;;;;;;;8.20;1.50;;;;;;;;;;5010107;28;20526;-86
2021/05/17 00:53:34;;;;;;;3.85;1.25;;;;;;;;;;5009089;28;20056;-87
2021/05/17 00:56:00;;;;;;;7.63;1.40;;;;;;;;;;5010955;28;20022;-87
2021/05/17 00:58:25;;;;;;;6.13;1.38;;;;;;;;;;5012664;28;20427;-87
2021/05/17 01:00:51;;;;;;;8.63;1.30;;;;;;;;;;5013521;28;20029;-86
2021/05/17 01:03:16;;;;;;;3.70;1.20;;;;;;;;;;5013819;28;20461;-86
2021/05/17 01:05:41;;;;;;;3.58;1.20;;;;;;;;;;5013484;28;20074;-85
2021/05/17 01:08:08;;;;;;;3.80;1.23;;;;;;;;;;5013594;28;20055;-86
2021/05/17 01:10:35;;;;;;;7.25;1.67;;;;;;;;;;5012434;28;20032;-86
2021/05/17 01:13:02;;;;;;;2.75;1.35;;;;;;;;;;5012241;28;20032;-86
2021/05/17 01:15:27;;;;;;;3.92;1.10;;;;;;;;;;5012390;28;20090;-86
2021/05/17 01:17:53;;;;;;;2.33;1.00;;;;;;;;;;5011331;28;20483;-86
2021/05/17 01:20:21;;;;;;;5.88;1.15;;;;;;;;;;5013029;28;20461;-86
2021/05/17 01:22:51;;;;;;;6.72;2.08;;;;;;;;;;5012977;28;20032;-86
2021/05/17 01:25:21;;;;;;;3.65;0.95;;;;;;;;;;5011449;28;20030;-86
2021/05/17 01:27:46;;;;;;;3.13;1.00;;;;;;;;;;5011733;28;20022;-86
2021/05/17 01:30:12;;;;;;;3.00;0.80;;;;;;;;;;5012687;28;20434;-86
2021/05/17 01:32:38;;;;;;;5.20;0.90;;;;;;;;;;5012709;28;20025;-86
2021/05/17 01:35:03;;;;;;;4.72;1.10;;;;;;;;;;5012787;28;20021;-86
2021/05/17 01:37:32;;;;;;;2.55;0.93;;;;;;;;;;5012961;28;20022;-86
2021/05/17 01:39:58;;;;;;;2.97;0.75;;;;;;;;;;5011580;28;20024;-87
2021/05/17 01:42:23;;;;;;;4.65;0.93;;;;;;;;;;5011277;28;20544;-86
2021/05/17 01:44:48;;;;;;;2.08;0.80;;;;;;;;;;5010980;28;20381;-86
2021/05/17 01:47:16;;;;;;;4.75;0.90;;;;;;;;;;5019670;28;20022;-86
2021/05/17 01:49:43;;;;;;;2.22;0.82;;;;;;;;;;5011844;28;20014;-86
2021/05/17 01:52:08;;;;;;;3.92;1.00;;;;;;;;;;5012845;28;20033;-86
2021/05/17 01:54:35;;;;;;;3.17;1.00;;;;;;;;;;5028149;28;20026;-86
2021/05/17 01:57:00;;;;;;;3.55;1.00;;;;;;;;;;5011772;28;20022;-87
2021/05/17 01:59:33;;;;;;;2.97;1.10;;;;;;;;;;5012932;28;20014;-86
2021/05/17 02:01:58;;;;;;;;;;;;;;;;;;5013032;28;20373;-86
2021/05/17 02:04:24;;;;;;;2.33;0.98;;;;;;;;;;5011571;28;20280;-86
2021/05/17 02:06:49;;;;;;;4.15;1.33;;;;;;;;;;5010947;28;20344;-86
2021/05/17 02:09:16;;;;;;;1.60;1.15;;;;;;;;;;5012746;28;20065;-86
2021/05/17 02:11:41;;;;;;;3.60;1.17;;;;;;;;;;5019545;28;20109;-86
2021/05/17 02:14:07;;;;;;;11.45;1.67;;;;;;;;;;5028220;28;20077;-86
2021/05/17 02:16:32;;;;;;;9.65;1.33;;;;;;;;;;5011548;28;20014;-86
2021/05/17 02:18:57;;;;;;;4.88;1.63;;;;;;;;;;5012504;28;20048;-86
2021/05/17 02:21:23;;;;;;;3.42;1.08;;;;;;;;;;5012516;28;20021;-87
2021/05/17 02:23:48;;;;;;;13.10;1.70;;;;;;;;;;5012783;28;20045;-87
2021/05/17 02:26:13;;;;;;;4.07;1.50;;;;;;;;;;5012473;28;20490;-86
2021/05/17 02:28:39;;;;;;;8.45;1.50;;;;;;;;;;5012722;28;20357;-86
2021/05/17 02:31:05;;;;;;;3.85;1.48;;;;;;;;;;5011023;28;20050;-87
2021/05/17 02:33:31;;;;;;;3.92;1.60;;;;;;;;;;5012640;28;20410;-87
2021/05/17 02:35:56;;;;;;;4.20;1.80;;;;;;;;;;5012396;28;20109;-87
2021/05/17 02:38:22;;;;;;;5.57;1.55;;;;;;;;;;5012167;28;20022;-87
2021/05/17 02:40:49;;;;;;;3.28;1.60;;;;;;;;;;5011123;28;20044;-87
2021/05/17 02:43:14;;;;;;;4.38;1.67;;;;;;;;;;5012330;28;20030;-87
2021/05/17 02:45:39;;;;;;;5.65;1.83;;;;;;;;;;5012134;28;20029;-87
2021/05/17 02:48:06;;;;;;;5.13;1.40;;;;;;;;;;5027368;28;20092;-86
2021/05/17 02:50:34;;;;;;;2.63;1.50;;;;;;;;;;5011910;28;20058;-87
2021/05/17 02:52:59;;;;;;;4.88;1.58;;;;;;;;;;5010894;28;20026;-86
2021/05/17 02:55:32;;;;;;;4.30;1.40;;;;;;;;;;5010934;28;20079;-87
2021/05/17 02:58:17;;;;;;;5.88;1.50;;;;;;;;;;5012048;28;20022;-87
2021/05/17 03:00:44;;;;;;;3.85;1.60;;;;;;;;;;5010525;28;20431;-86
2021/05/17 03:03:11;;;;;;;5.15;1.60;;;;;;;;;;5011952;28;20045;-87
2021/05/17 03:05:38;;;;;;;5.68;1.70;;;;;;;;;;5011860;28;20097;-86
2021/05/17 03:08:04;;;;;;;5.28;1.38;;;;;;;;;;5011935;28;20071;-86
2021/05/17 03:10:30;;;;;;;7.72;1.75;;;;;;;;;;5011760;28;20407;-86
2021/05/17 03:12:57;;;;;;;6.15;1.58;;;;;;;;;;5011621;28;20041;-86
2021/05/17 03:15:25;;;;;;;6.53;1.75;;;;;;;;;;5010507;28;20105;-86
2021/05/17 03:17:51;;;;;;;6.28;1.70;;;;;;;;;;5009315;28;20018;-86
2021/05/17 03:20:16;;;;;;;3.78;1.80;;;;;;;;;;5018371;28;20026;-87
2021/05/17 03:22:42;;;;;;;6.35;1.67;;;;;;;;;;5011282;28;20410;-86
2021/05/17 03:25:07;;;;;;;8.98;2.05;;;;;;;;;;5009977;28;20030;-86
2021/05/17 03:27:33;;;;;;;6.47;1.30;;;;;;;;;;5018789;28;20026;-86
2021/05/17 03:29:58;;;;;;;8.43;1.83;;;;;;;;;;5074672;28;20026;-86
2021/05/17 03:32:24;;;;;;;4.10;1.55;;;;;;;;;;5011201;28;20449;-86
2021/05/17 03:34:50;;;;;;;7.70;1.85;;;;;;;;;;5009739;28;20026;-87
2021/05/17 03:37:15;;;;;;;6.95;2.50;;;;;;;;;;5011334;28;20018;-86
2021/05/17 03:39:44;;;;;;;9.30;1.88;;;;;;;;;;5009887;28;20107;-86
2021/05/17 03:42:09;;;;;;;7.25;1.92;;;;;;;;;;5009672;28;20148;-85
2021/05/17 03:44:35;;;;;;;9.13;1.95;;;;;;;;;;5011296;28;20108;-86
2021/05/17 03:47:00;;;;;;;8.15;1.60;;;;;;;;;;5010782;28;20022;-86
2021/05/17 03:49:25;;;;;;;7.75;1.90;;;;;;;;;;5012317;28;20025;-86
2021/05/17 03:51:50;;;;;;;10.05;1.60;;;;;;;;;;5009915;28;20033;-86
2021/05/17 03:54:16;;;;;;;5.32;1.48;;;;;;;;;;5011058;28;20546;-86
2021/05/17 03:56:41;;;;;;;9.35;1.30;;;;;;;;;;5009714;28;20534;-86
2021/05/17 03:59:06;;;;;;;7.32;1.40;;;;;;;;;;5013898;28;20006;-86
2021/05/17 04:01:31;;;;;;;7.40;1.77;;;;;;;;;;5010911;28;20071;-86
2021/05/17 04:03:57;;;;;;;11.77;1.58;;;;;;;;;;5009692;28;20432;-86
2021/05/17 04:06:37;;;;;;;9.52;1.65;;;;;;;;;;5011111;28;20040;-87
2021/05/17 04:14:30;;;;;;;12.02;1.92;;;;;;;;;;5010878;28;20138;-87
2021/05/17 04:16:55;;;;;;;10.27;1.40;;;;;;;;;;5011480;28;20388;-86
2021/05/17 04:19:25;;;;;;;8.35;1.70;;;;;;;;;;5010658;28;20030;-86
2021/05/17 04:21:51;;;;;;;4.45;1.38;;;;;;;;;;5010835;28;20022;-86
2021/05/17 04:24:16;;;;;;;5.90;1.30;;;;;;;;;;5016331;28;20049;-87
2021/05/17 04:26:41;;;;;;;11.05;1.27;;;;;;;;;;5010540;28;20054;-86
2021/05/17 04:29:06;;;;;;;9.80;1.80;;;;;;;;;;5010528;28;20042;-86
2021/05/17 04:31:31;;;;;;;9.82;1.60;;;;;;;;;;5010397;28;20014;-86
2021/05/17 04:33:56;;;;;;;9.40;1.70;;;;;;;;;;5010613;28;20017;-87
2021/05/17 04:36:23;;;;;;;7.15;2.05;;;;;;;;;;5010353;28;20101;-86
2021/05/17 04:38:48;;;;;;;5.30;1.33;;;;;;;;;;5010414;28;20022;-87
2021/05/17 04:41:13;;;;;;;7.85;1.48;;;;;;;;;;5010640;28;20159;-86
2021/05/17 04:43:38;;;;;;;8.82;1.40;;;;;;;;;;5009092;28;20107;-86
2021/05/17 04:46:03;;;;;;;10.07;1.73;;;;;;;;;;5010248;28;20038;-87
2021/05/17 04:48:29;;;;;;;9.07;1.42;;;;;;;;;;5010511;28;20104;-86
2021/05/17 04:50:54;;;;;;;4.40;1.27;;;;;;;;;;5025362;28;20018;-86
2021/05/17 04:53:19;;;;;;;9.07;1.60;;;;;;;;;;5009186;28;20052;-86
2021/05/17 04:55:44;;;;;;;11.57;2.30;;;;;;;;;;5008987;28;20013;-86
2021/05/17 04:58:10;;;;;;;10.27;1.92;;;;;;;;;;5010023;28;20018;-87
2021/05/17 05:00:35;;;;;;;7.00;1.60;;;;;;;;;;5008645;28;20110;-86
2021/05/17 05:03:00;;;;;;;6.97;1.40;;;;;;;;;;5061284;28;20026;-86
2021/05/17 05:05:25;;;;;;;8.82;1.55;;;;;;;;;;5014384;28;20025;-86
2021/05/17 05:07:51;;;;;;;13.57;2.45;;;;;;;;;;5010232;28;20537;-86
2021/05/17 05:10:16;;;;;;;24.60;6.75;;;;;;;;;;5010245;28;20011;-86
2021/05/17 05:12:41;;;;;;;15.68;3.90;;;;;;;;;;5009941;28;20026;-86
2021/05/17 05:15:06;;;;;;;7.15;1.85;;;;;;;;;;5010127;28;20043;-86
2021/05/17 05:17:32;;;;;;;13.85;3.00;;;;;;;;;;5009919;28;20022;-86
2021/05/17 05:19:57;;;;;;;11.77;2.25;;;;;;;;;;5010012;28;20461;-86
2021/05/17 05:22:24;;;;;;;10.10;1.50;;;;;;;;;;5008500;28;20025;-86
2021/05/17 05:24:49;;;;;;;12.77;1.70;;;;;;;;;;5008847;28;20022;-86
2021/05/17 05:34:45;;;;;;;12.15;1.80;;;;;;;;;;5009790;28;20416;-87
2021/05/17 05:37:10;;;;;;;7.68;1.70;;;;;;;;;;5025076;28;20022;-87
2021/05/17 05:39:35;;;;;;;7.78;1.40;;;;;;;;;;5009845;28;20010;-87
2021/05/17 05:42:01;;;;;;;6.25;1.30;;;;;;;;;;5010348;28;20033;-86
2021/05/17 05:44:26;;;;;;;6.60;2.20;;;;;;;;;;5013177;28;20034;-87
2021/05/17 05:46:51;;;;;;;10.00;1.60;;;;;;;;;;5012897;28;20025;-85
2021/05/17 05:49:16;;;;;;;10.15;1.83;;;;;;;;;;5014655;28;20030;-86
2021/05/17 05:51:41;;;;;;;12.75;2.00;;;;;;;;;;5021581;28;20081;-86
2021/05/17 05:54:07;;;;;;;7.90;1.25;;;;;;;;;;5021293;28;20033;-86
2021/05/17 05:56:32;;;;;;;11.88;2.13;;;;;;;;;;5084046;27;20026;-87
2021/05/17 05:58:58;;;;;;;8.48;1.40;;;;;;;;;;5022133;28;20033;-86
2021/05/17 06:01:23;;;;;;;4.65;1.33;;;;;;;;;;5012796;28;20113;-86
2021/05/17 06:03:48;;;;;;;8.55;1.73;;;;;;;;;;5012056;28;20075;-86
2021/05/17 06:06:13;;;;;;;7.13;1.30;;;;;;;;;;5029224;28;20556;-86
2021/05/17 06:08:43;;;;;;;9.50;1.65;;;;;;;;;;5011026;28;20045;-86
2021/05/17 06:11:09;;;;;;;8.00;1.40;;;;;;;;;;5069445;28;20036;-82
2021/05/17 06:13:36;;;;;;;8.75;1.48;;;;;;;;;;5010687;28;20097;-81
2021/05/17 06:16:01;;;;;;;7.00;1.55;;;;;;;;;;5037868;28;20036;-81
2021/05/17 06:18:26;;;;;;;7.80;1.48;;;;;;;;;;5060103;28;20034;-80
2021/05/17 06:20:54;;;;;;;8.05;1.58;;;;;;;;;;5066852;28;20130;-81
2021/05/17 06:23:19;;;;;;;7.32;2.22;;;;;;;;;;5039297;27;20121;-81
2021/05/17 06:25:45;;;;;;;5.78;2.05;;;;;;;;;;5010783;28;20108;-81
2021/05/17 06:28:10;;;;;;;7.88;1.52;;;;;;;;;;5083952;28;20026;-81
2021/05/17 06:30:44;;;;;;;4.82;1.70;;;;;;;;;;5011878;28;20440;-81
2021/05/17 06:33:10;;;;;;;3.90;1.40;;;;;;;;;;5012036;28;20030;-81
2021/05/17 06:35:45;;;;;;;4.53;1.65;;;;;;;;;;5047495;28;21205;-81
2021/05/17 06:38:10;;;;;;;10.82;1.80;;;;;;;;;;5013692;28;20123;-81
2021/05/17 06:40:35;;;;;;;5.32;1.48;;;;;;;;;;5011941;28;20059;-81
2021/05/17 06:43:01;;;;;;;5.65;1.50;;;;;;;;;;5037409;28;20036;-81
2021/05/17 06:45:27;;;;;;;6.88;1.42;;;;;;;;;;5037897;28;20543;-81
2021/05/17 06:47:53;;;;;;;5.90;1.75;;;;;;;;;;5063801;28;20023;-81
2021/05/17 06:50:18;;;;;;;6.93;1.40;;;;;;;;;;5043066;28;20037;-81
2021/05/17 06:52:44;;;;;;;5.68;1.70;;;;;;;;;;5036726;28;20022;-81
2021/05/17 06:55:18;;;;;;;7.78;1.80;;;;;;;;;;5037366;28;20030;-81
2021/05/17 07:00:23;;;;;;;4.95;1.30;;;;;;;;;;5014373;28;20079;-81
2021/05/17 07:02:50;;;;;;;5.85;2.15;;;;;;;;;;5021351;28;20026;-83
2021/05/17 07:05:16;;;;;;;12.20;2.42;;;;;;;;;;5029772;28;20396;-83
2021/05/17 07:12:50;;;;;;;6.53;1.67;;;;;;;;;;5069983;28;20057;-81
2021/05/17 07:15:16;;;;;;;8.10;1.80;;;;;;;;;;5010245;28;20065;-81
2021/05/17 07:17:44;;;;;;;7.28;2.13;;;;;;;;;;5011127;28;20465;-81
2021/05/17 07:20:10;;;;;;;10.00;2.15;;;;;;;;;;5014708;28;20465;-81
2021/05/17 07:25:18;;;;;;;8.20;1.98;;;;;;;;;;5011003;28;20047;-82
2021/05/17 07:27:44;;;;;;;8.50;1.88;;;;;;;;;;5026919;28;20375;-81
2021/05/17 07:30:09;;;;;;;5.85;2.25;;;;;;;;;;5005074;28;20018;-81
2021/05/17 07:32:34;;;;;;;7.43;2.03;;;;;;;;;;5004273;28;20049;-86
2021/05/17 07:35:01;;;;;;;6.30;2.10;;;;;;;;;;5020429;28;20022;-86
2021/05/17 07:37:26;;;;;;;4.93;2.13;;;;;;;;;;5029883;28;20462;-86
2021/05/17 07:39:52;;;;;;;9.43;1.98;;;;;;;;;;5013197;28;20018;-87
2021/05/17 07:42:17;;;;;;;5.43;2.40;;;;;;;;;;5009783;28;20029;-87
2021/05/17 07:44:42;;;;;;;9.35;2.33;;;;;;;;;;5010031;28;20488;-87
2021/05/17 07:47:07;;;;;;;10.85;3.33;;;;;;;;;;5011200;28;20132;-87
2021/05/17 07:49:41;;;;;;;7.53;2.40;;;;;;;;;;5011536;28;20168;-87
2021/05/17 07:52:06;;;;;;;9.00;2.67;;;;;;;;;;5010959;28;20106;-87
2021/05/17 07:54:32;;;;;;;12.45;2.42;;;;;;;;;;5026308;28;20044;-87
2021/05/17 07:56:57;;;;;;;9.55;2.78;;;;;;;;;;5010011;28;20053;-87
2021/05/17 07:59:27;;;;;;;7.43;2.40;;;;;;;;;;5011764;28;20026;-87
2021/05/17 08:01:53;;;;;;;11.25;2.45;;;;;;;;;;5026346;28;20014;-87
2021/05/17 08:04:18;;;;;;;5.65;2.42;;;;;;;;;;5010274;28;20148;-87
2021/05/17 08:06:44;;;;;;;12.27;2.95;;;;;;;;;;5034704;28;20053;-87
2021/05/17 08:09:09;;;;;;;7.75;2.28;;;;;;;;;;5069412;28;20026;-87
2021/05/17 08:11:34;;;;;;;7.30;2.67;;;;;;;;;;5010989;28;20042;-87
2021/05/17 08:13:59;;;;;;;10.00;2.83;;;;;;;;;;5010961;28;20026;-88
2021/05/17 08:16:25;;;;;;;9.52;2.47;;;;;;;;;;5010901;28;20342;-88
2021/05/17 08:18:51;;;;;;;6.18;2.53;;;;;;;;;;5050366;28;20015;-88
2021/05/17 08:21:16;;;;;;;6.93;2.10;;;;;;;;;;5026270;28;20017;-87
2021/05/17 08:23:41;;;;;;;6.57;2.90;;;;;;;;;;5013617;28;20026;-88
2021/05/17 08:26:07;;;;;;;9.00;2.55;;;;;;;;;;5014203;28;20030;-88
2021/05/17 08:28:33;;;;;;;6.90;2.92;;;;;;;;;;5073541;28;20018;-89
2021/05/17 08:30:58;;;;;;;12.57;3.22;;;;;;;;;;5067172;28;20023;-88
2021/05/17 08:33:24;;;;;;;6.53;2.20;;;;;;;;;;5014370;28;20018;-88
2021/05/17 08:35:50;;;;;;;8.32;2.80;;;;;;;;;;5009327;28;20021;-87
2021/05/17 08:38:15;;;;;;;7.28;2.53;;;;;;;;;;5010623;28;20025;-88
2021/05/17 08:40:41;;;;;;;8.18;2.80;;;;;;;;;;5009528;28;20022;-89
2021/05/17 08:43:07;;;;;;;7.22;3.00;;;;;;;;;;5010754;28;20496;-89
2021/05/17 08:45:32;;;;;;;4.68;2.75;;;;;;;;;;5010654;28;20010;-89
2021/05/17 08:47:58;;;;;;;8.43;3.20;;;;;;;;;;5010746;28;20010;-89
2021/05/17 08:50:23;;;;;;;7.10;2.92;;;;;;;;;;5009719;28;20018;-88
2021/05/17 08:52:49;;;;;;;11.38;3.35;;;;;;;;;;5009948;28;20025;-90
2021/05/17 08:55:14;;;;;;;7.72;2.58;;;;;;;;;;5010956;28;20029;-89
2021/05/17 08:57:43;;;;;;;5.78;2.50;;;;;;;;;;5010580;28;20025;-90
2021/05/17 09:00:09;;;;;;;6.10;2.80;;;;;;;;;;5001505;28;20030;-89
2021/05/17 09:02:34;;;;;;;6.25;2.70;;;;;;;;;;5010690;28;20063;-90
2021/05/17 09:05:18;;;;;;;6.55;2.70;;;;;;;;;;5026186;28;20026;-90
2021/05/17 09:07:45;;;;;;;9.10;2.70;;;;;;;;;;5010505;28;20101;-90
2021/05/17 09:10:27;;;;;;;6.45;2.70;;;;;;;;;;5010770;28;20030;-89
2021/05/17 09:12:56;;;;;;;8.50;3.10;;;;;;;;;;5009305;28;20025;-89
2021/05/17 09:15:31;;;;;;;6.30;3.08;;;;;;;;;;5010248;28;20532;-89
2021/05/17 09:17:57;;;;;;;10.93;3.20;;;;;;;;;;5012300;28;20010;-89
2021/05/17 09:20:23;;;;;;;7.05;3.42;;;;;;;;;;5012874;28;20040;-89
2021/05/17 09:23:03;;;;;;;7.68;3.38;;;;;;;;;;5013571;28;20096;-89
2021/05/17 09:25:28;;;;;;;11.57;3.58;;;;;;;;;;5012576;28;20022;-89
2021/05/17 09:27:59;;;;;;;7.22;3.35;;;;;;;;;;5028636;28;20050;-89
2021/05/17 09:30:24;;;;;;;7.45;3.60;;;;;;;;;;5013696;28;20151;-89
2021/05/17 09:32:49;;;;;;;7.35;3.35;;;;;;;;;;5012046;28;20105;-88
2021/05/17 09:35:19;;;;;;;10.75;3.03;;;;;;;;;;5013627;28;20401;-89
2021/05/17 09:37:45;;;;;;;6.55;3.25;;;;;;;;;;5012259;28;20015;-89
2021/05/17 09:40:19;;;;;;;9.82;3.85;;;;;;;;;;5017486;28;20018;-90
2021/05/17 09:42:44;;;;;;;8.02;3.30;;;;;;;;;;5001189;28;20028;-90
2021/05/17 09:45:12;;;;;;;7.65;4.30;;;;;;;;;;5013648;28;20105;-90
2021/05/17 09:47:37;;;;;;;11.05;4.40;;;;;;;;;;5014045;28;20018;-90
2021/05/17 09:50:04;;;;;;;8.38;3.65;;;;;;;;;;5015069;28;20057;-91
2021/05/17 09:52:32;;;;;;;15.93;4.55;;;;;;;;;;5012426;28;20055;-91
2021/05/17 09:54:58;;;;;;;9.63;4.47;;;;;;;;;;5013505;28;20040;-91
2021/05/17 09:57:34;;;;;;;10.68;5.00;;;;;;;;;;5013454;28;20067;-90
2021/05/17 10:00:15;;;;;;;8.10;4.38;;;;;;;;;;5012099;28;20497;-90
2021/05/17 10:02:40;;;;;;;15.48;5.03;;;;;;;;;;5004759;28;20028;-90
2021/05/17 10:05:12;;;;;;;13.10;4.95;;;;;;;;;;5037892;28;20126;-90
2021/05/17 10:07:37;;;;;;;12.32;5.57;;;;;;;;;;5011693;28;20024;-90
2021/05/17 10:10:03;;;;;;;9.82;5.00;;;;;;;;;;5013111;28;20014;-90
2021/05/17 10:12:29;;;;;;;13.15;4.95;;;;;;;;;;5011615;28;20556;-91
2021/05/17 10:14:54;;;;;;;11.88;5.55;;;;;;;;;;5050312;28;20059;-91
2021/05/17 10:17:20;;;;;;;14.48;5.13;;;;;;;;;;5005588;28;20026;-92
2021/05/17 10:19:45;;;;;;;9.43;5.13;;;;;;;;;;5012229;28;20041;-91
2021/05/17 10:22:11;;;;;;;9.70;5.13;;;;;;;;;;5012145;28;20030;-90
2021/05/17 10:24:36;;;;;;;15.40;5.13;;;;;;;;;;5011902;28;20518;-91
2021/05/17 10:27:02;;;;;;;10.70;5.30;;;;;;;;;;5020120;28;20026;-91
2021/05/17 10:29:32;;;;;;;13.55;5.30;;;;;;;;;;5011514;28;20461;-90
2021/05/17 10:32:00;;;;;;;10.82;5.25;;;;;;;;;;5012876;28;20050;-91
2021/05/17 10:34:25;;;;;;;18.67;7.72;;;;;;;;;;5029799;28;20122;-90
2021/05/17 10:36:52;;;;;;;16.10;6.85;;;;;;;;;;5075083;28;20064;-90
2021/05/17 10:39:19;;;;;;;20.08;8.73;;;;;;;;;;5012592;28;20014;-90
2021/05/17 10:41:58;;;;;;;24.52;8.65;;;;;;;;;;5011254;28;20448;-89
2021/05/17 10:46:52;;;;;;;29.40;10.60;;;;;;;;;;5012340;28;20522;-88
2021/05/17 10:49:26;;;;;;;25.73;10.40;;;;;;;;;;5012379;28;20026;-91
2021/05/17 10:51:53;;;;;;;33.55;10.82;;;;;;;;;;5011393;28;20432;-92
2021/05/17 10:54:29;;;;;;;21.63;8.88;;;;;;;;;;5023066;28;20673;-92
2021/05/17 10:56:57;;;;;;;25.13;10.40;;;;;;;;;;5011123;28;20022;-91
2021/05/17 11:02:11;;;;;;;26.35;10.85;;;;;;;;;;5012439;28;20517;-92
2021/05/17 11:04:48;;;;;;;21.05;8.43;;;;;;;;;;5012535;28;20419;-91
2021/05/17 11:07:19;;;;;;;21.60;8.82;;;;;;;;;;5005145;28;20030;-90
2021/05/17 11:09:47;;;;;;;22.88;8.77;;;;;;;;;;5011589;28;20358;-91
2021/05/17 11:12:19;;;;;;;20.35;9.20;;;;;;;;;;5010876;28;20029;-91
2021/05/17 11:15:02;;;;;;;16.58;7.47;;;;;;;;;;4998566;28;20011;-91
2021/05/17 11:17:27;;;;;;;12.27;5.55;;;;;;;;;;5012110;28;20022;-91
2021/05/17 11:19:53;;;;;;;19.45;6.90;;;;;;;;;;5012418;28;20068;-92
2021/05/17 11:22:18;;;;;;;14.40;5.32;;;;;;;;;;5046257;28;20026;-92
2021/05/17 11:24:46;;;;;;;15.13;5.28;;;;;;;;;;5015797;28;20023;-91
2021/05/17 11:27:11;;;;;;;10.18;5.30;;;;;;;;;;5011018;28;20032;-91
2021/05/17 11:29:37;;;;;;;8.18;4.32;;;;;;;;;;5035592;28;20026;-91
2021/05/17 11:32:14;;;;;;;101.03;47.25;;;;;;;;;;5070712;28;20026;-91
2021/05/17 11:35:00;;;;;;;73.30;45.38;;;;;;;;;;5010685;28;20380;-91
2021/05/17 11:37:25;;;;;;;16.02;7.22;;;;;;;;;;5010553;28;20049;-90
2021/05/17 11:39:50;;;;;;;17.45;7.22;;;;;;;;;;5070156;28;20023;-90
2021/05/17 11:42:18;;;;;;;11.43;3.88;;;;;;;;;;5017097;28;20032;-93
2021/05/17 11:44:54;;;;;;;10.95;3.83;;;;;;;;;;5010318;28;20018;-90
2021/05/17 11:47:21;;;;;;;5.97;2.45;;;;;;;;;;5011765;28;20018;-91
2021/05/17 11:49:47;;;;;;;17.15;3.80;;;;;;;;;;5056746;28;20049;-91
2021/05/17 11:52:13;;;;;;;15.68;4.50;;;;;;;;;;5010472;28;20083;-91
2021/05/17 11:54:45;;;;;;;12.05;4.22;;;;;;;;;;5010325;28;20427;-91
2021/05/17 11:57:10;;;;;;;13.27;4.75;;;;;;;;;;5011682;28;20018;-90
2021/05/17 11:59:36;;;;;;;21.25;6.00;;;;;;;;;;5012552;28;20028;-89
2021/05/17 12:02:05;;;;;;;13.32;3.88;;;;;;;;;;5010250;28;20125;-91
2021/05/17 12:04:34;;;;;;;12.70;3.97;;;;;;;;;;5010386;28;20083;-90
2021/05/17 12:07:02;;;;;;;15.60;3.95;;;;;;;;;;5010625;28;20036;-90
2021/05/17 12:09:37;;;;;;;14.93;4.60;;;;;;;;;;5013757;28;20105;-90
2021/05/17 12:12:04;;;;;;;14.93;4.10;;;;;;;;;;5014389;28;20120;-90
2021/05/17 12:14:30;;;;;;;14.55;3.90;;;;;;;;;;5009883;28;20370;-90
2021/05/17 12:16:59;;;;;;;19.55;4.95;;;;;;;;;;5010946;28;20025;-89
2021/05/17 12:19:24;;;;;;;16.70;5.00;;;;;;;;;;5019967;28;20024;-90
2021/05/17 12:21:49;;;;;;;16.58;5.55;;;;;;;;;;5010029;28;20526;-90
2021/05/17 12:24:25;;;;;;;25.65;6.25;;;;;;;;;;5024188;28;20037;-90
2021/05/17 12:26:59;;;;;;;23.38;5.18;;;;;;;;;;5011370;28;20465;-90
2021/05/17 12:29:25;;;;;;;17.98;5.45;;;;;;;;;;5053993;28;20376;-90
2021/05/17 12:31:51;;;;;;;18.38;5.22;;;;;;;;;;5011962;28;20030;-90
2021/05/17 12:34:16;;;;;;;21.63;4.95;;;;;;;;;;5009871;28;20022;-90
2021/05/17 12:36:42;;;;;;;18.58;5.50;;;;;;;;;;5010835;28;20472;-90
2021/05/17 12:39:25;;;;;;;22.52;5.97;;;;;;;;;;5009582;28;20022;-90
2021/05/17 12:41:51;;;;;;;26.88;5.80;;;;;;;;;;5009600;28;20064;-90
2021/05/17 12:44:33;;;;;;;27.60;6.15;;;;;;;;;;5010966;28;20430;-90
2021/05/17 12:47:12;;;;;;;19.98;6.80;;;;;;;;;;5009735;28;20034;-89
2021/05/17 12:49:44;;;;;;;26.70;7.28;;;;;;;;;;5009668;28;20080;-90
2021/05/17 12:52:09;;;;;;;21.92;6.70;;;;;;;;;;5013228;28;20018;-90
2021/05/17 12:54:34;;;;;;;28.17;7.28;;;;;;;;;;5014380;28;20026;-90
2021/05/17 12:57:08;;;;;;;28.30;6.72;;;;;;;;;;5020685;28;20022;-89
2021/05/17 12:59:43;;;;;;;18.63;5.60;;;;;;;;;;5007120;28;20025;-90
2021/05/17 13:02:09;;;;;;;25.25;6.35;;;;;;;;;;5018601;28;20029;-89
2021/05/17 13:04:35;;;;;;;32.75;7.35;;;;;;;;;;5012565;28;20109;-89
2021/05/17 13:07:05;;;;;;;27.20;7.10;;;;;;;;;;5018412;28;20116;-90
2021/05/17 13:09:34;;;;;;;36.33;8.95;;;;;;;;;;5013193;28;20022;-89
2021/05/17 13:11:59;;;;;;;33.40;8.10;;;;;;;;;;5012634;28;20021;-90
2021/05/17 13:14:25;;;;;;;30.05;8.43;;;;;;;;;;5013965;28;20036;-90
2021/05/17 13:16:53;;;;;;;33.53;9.27;;;;;;;;;;5012918;28;20484;-89
2021/05/17 13:32:56;;;;;;;14.10;2.83;;;;;;;;;;5035317;28;20018;-89
2021/05/17 13:35:22;;;;;;;15.32;3.25;;;;;;;;;;5028843;28;20102;-90
2021/05/17 13:37:47;;;;;;;13.95;3.85;;;;;;;;;;5013953;28;20029;-90
2021/05/17 13:40:13;;;;;;;11.95;2.70;;;;;;;;;;5013301;28;20050;-90
2021/05/17 13:42:39;;;;;;;9.48;2.67;;;;;;;;;;5013518;28;20026;-90
2021/05/17 13:45:08;;;;;;;8.27;2.80;;;;;;;;;;5013794;28;20036;-90
2021/05/17 13:47:34;;;;;;;14.43;3.33;;;;;;;;;;4998927;28;20017;-89
2021/05/17 13:49:59;;;;;;;9.63;2.58;;;;;;;;;;5059218;28;20064;-90
2021/05/17 13:52:24;;;;;;;7.70;2.40;;;;;;;;;;5046664;28;20026;-89
2021/05/17 13:54:50;;;;;;;6.55;2.15;;;;;;;;;;5026004;28;20374;-90
2021/05/17 13:57:15;;;;;;;10.38;3.47;;;;;;;;;;5021234;28;20082;-90
2021/05/17 13:59:41;;;;;;;11.93;2.22;;;;;;;;;;5045590;27;20022;-89
2021/05/17 14:02:07;;;;;;;9.88;2.47;;;;;;;;;;5021064;28;20022;-89
2021/05/17 14:04:32;;;;;;;10.82;2.05;;;;;;;;;;5078537;28;20018;-89
2021/05/17 14:06:57;;;;;;;9.43;2.33;;;;;;;;;;5046557;28;20022;-89
2021/05/17 14:09:22;;;;;;;10.00;3.03;;;;;;;;;;5093510;28;20143;-89
2021/05/17 14:11:49;;;;;;;14.10;3.42;;;;;;;;;;5109044;28;20088;-88
2021/05/17 14:14:14;;;;;;;9.15;2.60;;;;;;;;;;5058171;28;20034;-89
2021/05/17 14:16:39;;;;;;;9.57;2.25;;;;;;;;;;5107890;28;20020;-89
2021/05/17 14:19:05;;;;;;;13.55;2.47;;;;;;;;;;5109407;28;20023;-89
2021/05/17 14:21:30;;;;;;;12.68;1.92;;;;;;;;;;5037920;28;20052;-88
2021/05/17 14:23:55;;;;;;;4.95;1.98;;;;;;;;;;5108985;28;20024;-87
2021/05/17 14:26:20;;;;;;;8.73;1.92;;;;;;;;;;5097990;28;20101;-86
2021/05/17 14:28:47;;;;;;;9.80;2.22;;;;;;;;;;5106018;28;20495;-86
2021/05/17 14:31:14;;;;;;;8.75;2.17;;;;;;;;;;5093021;28;20760;-86
2021/05/17 14:33:39;;;;;;;7.10;2.22;;;;;;;;;;5057710;28;20022;-87
2021/05/17 14:36:04;;;;;;;19.30;3.20;;;;;;;;;;5074739;28;20027;-86
2021/05/17 14:38:30;;;;;;;14.43;4.78;;;;;;;;;;5084123;28;20623;-87
2021/05/17 14:40:55;;;;;;;9.50;2.88;;;;;;;;;;5026956;28;20017;-86
2021/05/17 14:43:20;;;;;;;8.25;1.90;;;;;;;;;;5012377;28;20504;-87
2021/05/17 14:45:46;;;;;;;9.43;3.03;;;;;;;;;;5011133;28;20014;-87
2021/05/17 14:48:11;;;;;;;12.68;3.03;;;;;;;;;;5019998;28;20512;-87
2021/05/17 14:50:36;;;;;;;11.32;3.20;;;;;;;;;;5044654;28;20111;-88
2021/05/17 14:53:01;;;;;;;10.88;2.83;;;;;;;;;;5082831;28;20029;-87
2021/05/17 14:55:27;;;;;;;11.68;3.65;;;;;;;;;;5034453;28;20026;-87
2021/05/17 14:57:53;;;;;;;11.05;3.30;;;;;;;;;;5013219;28;20022;-88
2021/05/17 15:00:19;;;;;;;10.45;2.70;;;;;;;;;;5065152;28;20110;-87
2021/05/17 15:02:44;;;;;;;10.98;3.53;;;;;;;;;;5017768;28;20099;-87
2021/05/17 15:05:10;;;;;;;13.23;4.00;;;;;;;;;;5052115;27;20034;-88
2021/05/17 15:07:35;;;;;;;12.02;4.57;;;;;;;;;;5025865;28;20020;-86
2021/05/17 15:10:01;;;;;;;14.07;4.55;;;;;;;;;;5080861;28;20144;-87
2021/05/17 15:12:26;;;;;;;11.80;4.10;;;;;;;;;;5037293;28;20112;-87
2021/05/17 15:14:51;;;;;;;12.13;3.88;;;;;;;;;;5008445;28;20022;-81
2021/05/17 15:17:17;;;;;;;15.60;5.18;;;;;;;;;;5009308;28;20033;-81